sensor_id;sensor_type;location;lat;lon;timestamp;pressure;altitude;pressure_sealevel;temperature
82411;BMP180;72054;55.772;49.096;2023-08-17T00:00:26;100521.00;;;23.20
82411;BMP180;72054;55.772;49.096;2023-08-17T00:01:27;100556.00;;;23.20
82411;BMP180;72054;55.772;49.096;2023-08-17T00:02:27;100573.00;;;23.20
82411;BMP180;72054;55.772;49.096;2023-08-17T00:03:28;100504.00;;;23.20
82411;BMP180;72054;55.772;49.096;2023-08-17T00:04:28;100523.00;;;23.20
82411;BMP180;72054;55.772;49.096;2023-08-17T00:05:28;100556.00;;;23.20
82411;BMP180;72054;55.772;49.096;2023-08-17T00:06:29;100578.00;;;23.40
82411;BMP180;72054;55.772;49.096;2023-08-17T00:07:30;100574.00;;;23.30
82411;BMP180;72054;55.772;49.096;2023-08-17T00:08:30;100548.00;;;23.30
82411;BMP180;72054;55.772;49.096;2023-08-17T00:09:32;100581.00;;;23.30
82411;BMP180;72054;55.772;49.096;2023-08-17T00:10:32;100560.00;;;23.20
82411;BMP180;72054;55.772;49.096;2023-08-17T00:11:33;100586.00;;;23.20
82411;BMP180;72054;55.772;49.096;2023-08-17T00:12:34;100577.00;;;23.20
82411;BMP180;72054;55.772;49.096;2023-08-17T00:13:34;100503.00;;;23.20
82411;BMP180;72054;55.772;49.096;2023-08-17T00:14:35;100548.00;;;23.20
82411;BMP180;72054;55.772;49.096;2023-08-17T00:15:35;100592.00;;;23.20
82411;BMP180;72054;55.772;49.096;2023-08-17T00:16:36;100476.00;;;23.20
82411;BMP180;72054;55.772;49.096;2023-08-17T00:17:36;100507.00;;;23.20
82411;BMP180;72054;55.772;49.096;2023-08-17T00:18:37;100537.00;;;23.20
82411;BMP180;72054;55.772;49.096;2023-08-17T00:19:37;100565.00;;;23.20
82411;BMP180;72054;55.772;49.096;2023-08-17T00:20:38;100558.00;;;23.20
82411;BMP180;72054;55.772;49.096;2023-08-17T00:21:38;100475.00;;;23.20
82411;BMP180;72054;55.772;49.096;2023-08-17T00:22:39;100544.00;;;23.20
82411;BMP180;72054;55.772;49.096;2023-08-17T00:23:39;100490.00;;;23.20
82411;BMP180;72054;55.772;49.096;2023-08-17T00:24:40;100497.00;;;23.20
82411;BMP180;72054;55.772;49.096;2023-08-17T00:25:42;100549.00;;;23.20
82411;BMP180;72054;55.772;49.096;2023-08-17T00:26:42;100548.00;;;23.10
82411;BMP180;72054;55.772;49.096;2023-08-17T00:27:43;100594.00;;;23.20
82411;BMP180;72054;55.772;49.096;2023-08-17T00:28:43;100579.00;;;23.10
82411;BMP180;72054;55.772;49.096;2023-08-17T00:29:44;100553.00;;;23.10
82411;BMP180;72054;55.772;49.096;2023-08-17T00:30:45;100600.00;;;23.10
82411;BMP180;72054;55.772;49.096;2023-08-17T00:31:45;100590.00;;;23.10
82411;BMP180;72054;55.772;49.096;2023-08-17T00:32:46;100574.00;;;23.10
82411;BMP180;72054;55.772;49.096;2023-08-17T00:33:46;100543.00;;;23.10
82411;BMP180;72054;55.772;49.096;2023-08-17T00:34:46;100578.00;;;23.10
82411;BMP180;72054;55.772;49.096;2023-08-17T00:35:47;100516.00;;;23.10
82411;BMP180;72054;55.772;49.096;2023-08-17T00:36:47;100591.00;;;23.10
82411;BMP180;72054;55.772;49.096;2023-08-17T00:37:48;100507.00;;;23.10
82411;BMP180;72054;55.772;49.096;2023-08-17T00:38:48;100604.00;;;23.10
82411;BMP180;72054;55.772;49.096;2023-08-17T00:39:49;100547.00;;;23.10
82411;BMP180;72054;55.772;49.096;2023-08-17T00:40:49;100592.00;;;23.10
82411;BMP180;72054;55.772;49.096;2023-08-17T00:41:50;100579.00;;;23.10
82411;BMP180;72054;55.772;49.096;2023-08-17T00:42:50;100566.00;;;23.10
82411;BMP180;72054;55.772;49.096;2023-08-17T00:43:51;100572.00;;;23.10
82411;BMP180;72054;55.772;49.096;2023-08-17T00:44:52;100595.00;;;23.10
82411;BMP180;72054;55.772;49.096;2023-08-17T00:45:53;100618.00;;;23.10
82411;BMP180;72054;55.772;49.096;2023-08-17T00:46:53;100586.00;;;23.20
82411;BMP180;72054;55.772;49.096;2023-08-17T00:47:56;100603.00;;;23.20
82411;BMP180;72054;55.772;49.096;2023-08-17T00:48:57;100619.00;;;23.20
82411;BMP180;72054;55.772;49.096;2023-08-17T00:49:59;100596.00;;;23.20
82411;BMP180;72054;55.772;49.096;2023-08-17T00:51:00;100633.00;;;23.20
82411;BMP180;72054;55.772;49.096;2023-08-17T00:52:01;100563.00;;;23.20
82411;BMP180;72054;55.772;49.096;2023-08-17T00:53:03;100557.00;;;23.20
82411;BMP180;72054;55.772;49.096;2023-08-17T00:54:04;100595.00;;;23.20
82411;BMP180;72054;55.772;49.096;2023-08-17T00:55:05;100596.00;;;23.20
82411;BMP180;72054;55.772;49.096;2023-08-17T00:56:07;100460.00;;;23.20
82411;BMP180;72054;55.772;49.096;2023-08-17T00:57:08;100602.00;;;23.30
82411;BMP180;72054;55.772;49.096;2023-08-17T00:58:09;100596.00;;;23.30
82411;BMP180;72054;55.772;49.096;2023-08-17T00:59:10;100609.00;;;23.30
82411;BMP180;72054;55.772;49.096;2023-08-17T01:00:12;100607.00;;;23.30
82411;BMP180;72054;55.772;49.096;2023-08-17T01:01:13;100592.00;;;23.30
82411;BMP180;72054;55.772;49.096;2023-08-17T01:02:14;100607.00;;;23.30
82411;BMP180;72054;55.772;49.096;2023-08-17T01:03:15;100630.00;;;23.30
82411;BMP180;72054;55.772;49.096;2023-08-17T01:04:17;100596.00;;;23.30
82411;BMP180;72054;55.772;49.096;2023-08-17T01:05:17;100641.00;;;23.30
82411;BMP180;72054;55.772;49.096;2023-08-17T01:06:18;100613.00;;;23.30
82411;BMP180;72054;55.772;49.096;2023-08-17T01:07:19;100581.00;;;23.40
82411;BMP180;72054;55.772;49.096;2023-08-17T01:08:20;100604.00;;;23.30
82411;BMP180;72054;55.772;49.096;2023-08-17T01:09:20;100602.00;;;23.40
82411;BMP180;72054;55.772;49.096;2023-08-17T01:10:21;100621.00;;;23.30
82411;BMP180;72054;55.772;49.096;2023-08-17T01:11:32;100631.00;;;23.40
82411;BMP180;72054;55.772;49.096;2023-08-17T01:12:56;100634.00;;;23.50
82411;BMP180;72054;55.772;49.096;2023-08-17T01:15:25;100590.00;;;23.40
82411;BMP180;72054;55.772;49.096;2023-08-17T01:16:33;100638.00;;;23.40
82411;BMP180;72054;55.772;49.096;2023-08-17T01:17:42;100581.00;;;23.30
82411;BMP180;72054;55.772;49.096;2023-08-17T01:18:45;100642.00;;;23.30
82411;BMP180;72054;55.772;49.096;2023-08-17T01:19:46;100563.00;;;23.30
82411;BMP180;72054;55.772;49.096;2023-08-17T01:20:48;100588.00;;;23.20
82411;BMP180;72054;55.772;49.096;2023-08-17T01:21:50;100632.00;;;23.20
82411;BMP180;72054;55.772;49.096;2023-08-17T01:22:52;100637.00;;;23.10
82411;BMP180;72054;55.772;49.096;2023-08-17T01:23:57;100542.00;;;23.20
82411;BMP180;72054;55.772;49.096;2023-08-17T01:24:59;100616.00;;;23.20
82411;BMP180;72054;55.772;49.096;2023-08-17T01:26:00;100640.00;;;23.10
82411;BMP180;72054;55.772;49.096;2023-08-17T01:27:00;100634.00;;;23.10
82411;BMP180;72054;55.772;49.096;2023-08-17T01:28:01;100591.00;;;23.10
82411;BMP180;72054;55.772;49.096;2023-08-17T01:29:02;100579.00;;;23.10
82411;BMP180;72054;55.772;49.096;2023-08-17T01:30:03;100589.00;;;23.00
82411;BMP180;72054;55.772;49.096;2023-08-17T01:31:09;100626.00;;;23.10
82411;BMP180;72054;55.772;49.096;2023-08-17T01:32:39;100640.00;;;23.20
82411;BMP180;72054;55.772;49.096;2023-08-17T01:33:45;100626.00;;;23.10
82411;BMP180;72054;55.772;49.096;2023-08-17T01:35:01;100640.00;;;23.10
82411;BMP180;72054;55.772;49.096;2023-08-17T01:36:11;100638.00;;;23.10
82411;BMP180;72054;55.772;49.096;2023-08-17T01:37:17;100599.00;;;23.00
82411;BMP180;72054;55.772;49.096;2023-08-17T01:38:20;100572.00;;;23.00
82411;BMP180;72054;55.772;49.096;2023-08-17T01:39:24;100593.00;;;23.00
82411;BMP180;72054;55.772;49.096;2023-08-17T01:40:28;100592.00;;;23.00
82411;BMP180;72054;55.772;49.096;2023-08-17T01:41:30;100613.00;;;23.00
82411;BMP180;72054;55.772;49.096;2023-08-17T01:42:30;100609.00;;;23.00
82411;BMP180;72054;55.772;49.096;2023-08-17T01:43:31;100605.00;;;23.00
82411;BMP180;72054;55.772;49.096;2023-08-17T01:44:32;100485.00;;;23.00
82411;BMP180;72054;55.772;49.096;2023-08-17T01:45:33;100614.00;;;23.00
82411;BMP180;72054;55.772;49.096;2023-08-17T01:46:34;100595.00;;;23.00
82411;BMP180;72054;55.772;49.096;2023-08-17T01:47:35;100542.00;;;23.10
82411;BMP180;72054;55.772;49.096;2023-08-17T01:48:35;100648.00;;;23.10
82411;BMP180;72054;55.772;49.096;2023-08-17T01:49:36;100568.00;;;23.10
82411;BMP180;72054;55.772;49.096;2023-08-17T01:50:36;100617.00;;;23.10
82411;BMP180;72054;55.772;49.096;2023-08-17T01:51:37;100650.00;;;23.10
82411;BMP180;72054;55.772;49.096;2023-08-17T01:52:37;100596.00;;;23.20
82411;BMP180;72054;55.772;49.096;2023-08-17T01:53:38;100588.00;;;23.20
82411;BMP180;72054;55.772;49.096;2023-08-17T01:54:38;100567.00;;;23.20
82411;BMP180;72054;55.772;49.096;2023-08-17T01:55:39;100602.00;;;23.20
82411;BMP180;72054;55.772;49.096;2023-08-17T01:56:39;100668.00;;;23.30
82411;BMP180;72054;55.772;49.096;2023-08-17T01:57:39;100564.00;;;23.30
82411;BMP180;72054;55.772;49.096;2023-08-17T01:58:41;100622.00;;;23.40
82411;BMP180;72054;55.772;49.096;2023-08-17T01:59:41;100617.00;;;23.50
82411;BMP180;72054;55.772;49.096;2023-08-17T02:00:42;100661.00;;;23.60
82411;BMP180;72054;55.772;49.096;2023-08-17T02:01:42;100554.00;;;23.70
82411;BMP180;72054;55.772;49.096;2023-08-17T02:02:43;100637.00;;;23.80
82411;BMP180;72054;55.772;49.096;2023-08-17T02:03:43;100599.00;;;24.00
82411;BMP180;72054;55.772;49.096;2023-08-17T02:04:44;100483.00;;;24.10
82411;BMP180;72054;55.772;49.096;2023-08-17T02:05:47;100563.00;;;24.30
82411;BMP180;72054;55.772;49.096;2023-08-17T02:06:47;100658.00;;;24.40
82411;BMP180;72054;55.772;49.096;2023-08-17T02:07:48;100649.00;;;24.60
82411;BMP180;72054;55.772;49.096;2023-08-17T02:08:48;100564.00;;;24.70
82411;BMP180;72054;55.772;49.096;2023-08-17T02:09:49;100618.00;;;24.80
82411;BMP180;72054;55.772;49.096;2023-08-17T02:10:49;100617.00;;;25.00
82411;BMP180;72054;55.772;49.096;2023-08-17T02:11:50;100655.00;;;25.10
82411;BMP180;72054;55.772;49.096;2023-08-17T02:12:50;100624.00;;;25.20
82411;BMP180;72054;55.772;49.096;2023-08-17T02:13:51;100521.00;;;25.30
82411;BMP180;72054;55.772;49.096;2023-08-17T02:14:51;100588.00;;;25.40
82411;BMP180;72054;55.772;49.096;2023-08-17T02:15:53;100661.00;;;25.50
82411;BMP180;72054;55.772;49.096;2023-08-17T02:16:54;100644.00;;;25.70
82411;BMP180;72054;55.772;49.096;2023-08-17T02:17:54;100646.00;;;25.90
82411;BMP180;72054;55.772;49.096;2023-08-17T02:18:54;100634.00;;;26.00
82411;BMP180;72054;55.772;49.096;2023-08-17T02:19:55;100606.00;;;26.20
82411;BMP180;72054;55.772;49.096;2023-08-17T02:20:55;100624.00;;;26.40
82411;BMP180;72054;55.772;49.096;2023-08-17T02:21:56;100668.00;;;26.60
82411;BMP180;72054;55.772;49.096;2023-08-17T02:22:56;100659.00;;;26.80
82411;BMP180;72054;55.772;49.096;2023-08-17T02:23:57;100623.00;;;26.90
82411;BMP180;72054;55.772;49.096;2023-08-17T02:24:57;100660.00;;;27.10
82411;BMP180;72054;55.772;49.096;2023-08-17T02:25:58;100666.00;;;27.20
82411;BMP180;72054;55.772;49.096;2023-08-17T02:26:58;100595.00;;;27.40
82411;BMP180;72054;55.772;49.096;2023-08-17T02:27:59;100666.00;;;27.60
82411;BMP180;72054;55.772;49.096;2023-08-17T02:29:00;100668.00;;;27.70
82411;BMP180;72054;55.772;49.096;2023-08-17T02:30:01;100658.00;;;27.90
82411;BMP180;72054;55.772;49.096;2023-08-17T02:31:01;100646.00;;;28.10
82411;BMP180;72054;55.772;49.096;2023-08-17T02:32:02;100671.00;;;28.30
82411;BMP180;72054;55.772;49.096;2023-08-17T02:33:02;100616.00;;;28.50
82411;BMP180;72054;55.772;49.096;2023-08-17T02:34:03;100647.00;;;28.70
82411;BMP180;72054;55.772;49.096;2023-08-17T02:35:06;100662.00;;;28.90
82411;BMP180;72054;55.772;49.096;2023-08-17T02:36:07;100673.00;;;29.20
82411;BMP180;72054;55.772;49.096;2023-08-17T02:37:08;100671.00;;;29.40
82411;BMP180;72054;55.772;49.096;2023-08-17T02:38:08;100669.00;;;29.70
82411;BMP180;72054;55.772;49.096;2023-08-17T02:39:09;100655.00;;;29.90
82411;BMP180;72054;55.772;49.096;2023-08-17T02:40:10;100661.00;;;30.10
82411;BMP180;72054;55.772;49.096;2023-08-17T02:41:10;100669.00;;;30.30
82411;BMP180;72054;55.772;49.096;2023-08-17T02:42:11;100611.00;;;30.40
82411;BMP180;72054;55.772;49.096;2023-08-17T02:43:11;100663.00;;;30.60
82411;BMP180;72054;55.772;49.096;2023-08-17T02:44:12;100667.00;;;30.80
82411;BMP180;72054;55.772;49.096;2023-08-17T02:45:12;100666.00;;;31.00
82411;BMP180;72054;55.772;49.096;2023-08-17T02:46:13;100633.00;;;31.20
82411;BMP180;72054;55.772;49.096;2023-08-17T02:47:13;100674.00;;;31.40
82411;BMP180;72054;55.772;49.096;2023-08-17T02:48:14;100669.00;;;31.60
82411;BMP180;72054;55.772;49.096;2023-08-17T02:49:15;100681.00;;;31.80
82411;BMP180;72054;55.772;49.096;2023-08-17T02:50:15;100676.00;;;32.00
82411;BMP180;72054;55.772;49.096;2023-08-17T02:51:16;100649.00;;;32.20
82411;BMP180;72054;55.772;49.096;2023-08-17T02:52:16;100631.00;;;32.40
82411;BMP180;72054;55.772;49.096;2023-08-17T02:53:17;100647.00;;;32.50
82411;BMP180;72054;55.772;49.096;2023-08-17T02:54:17;100659.00;;;32.70
82411;BMP180;72054;55.772;49.096;2023-08-17T02:55:18;100679.00;;;32.80
82411;BMP180;72054;55.772;49.096;2023-08-17T02:56:18;100683.00;;;33.00
82411;BMP180;72054;55.772;49.096;2023-08-17T02:57:19;100660.00;;;33.10
82411;BMP180;72054;55.772;49.096;2023-08-17T02:58:20;100682.00;;;33.70
82411;BMP180;72054;55.772;49.096;2023-08-17T02:59:20;100685.00;;;33.60
82411;BMP180;72054;55.772;49.096;2023-08-17T03:00:21;100672.00;;;33.70
82411;BMP180;72054;55.772;49.096;2023-08-17T03:01:22;100656.00;;;33.70
82411;BMP180;72054;55.772;49.096;2023-08-17T03:02:22;100681.00;;;33.80
82411;BMP180;72054;55.772;49.096;2023-08-17T03:03:22;100688.00;;;33.90
82411;BMP180;72054;55.772;49.096;2023-08-17T03:04:23;100664.00;;;34.00
82411;BMP180;72054;55.772;49.096;2023-08-17T03:05:24;100671.00;;;34.20
82411;BMP180;72054;55.772;49.096;2023-08-17T03:06:25;100689.00;;;34.30
82411;BMP180;72054;55.772;49.096;2023-08-17T03:07:25;100681.00;;;34.40
82411;BMP180;72054;55.772;49.096;2023-08-17T03:08:26;100696.00;;;34.60
82411;BMP180;72054;55.772;49.096;2023-08-17T03:09:26;100700.00;;;34.80
82411;BMP180;72054;55.772;49.096;2023-08-17T03:10:27;100673.00;;;34.90
82411;BMP180;72054;55.772;49.096;2023-08-17T03:11:27;100665.00;;;35.00
82411;BMP180;72054;55.772;49.096;2023-08-17T03:12:28;100697.00;;;35.20
82411;BMP180;72054;55.772;49.096;2023-08-17T03:13:28;100710.00;;;35.30
82411;BMP180;72054;55.772;49.096;2023-08-17T03:14:28;100705.00;;;35.50
82411;BMP180;72054;55.772;49.096;2023-08-17T03:15:29;100705.00;;;35.60
82411;BMP180;72054;55.772;49.096;2023-08-17T03:16:30;100702.00;;;35.70
82411;BMP180;72054;55.772;49.096;2023-08-17T03:17:30;100693.00;;;35.90
82411;BMP180;72054;55.772;49.096;2023-08-17T03:18:31;100686.00;;;36.00
82411;BMP180;72054;55.772;49.096;2023-08-17T03:19:31;100652.00;;;36.20
82411;BMP180;72054;55.772;49.096;2023-08-17T03:20:31;100717.00;;;36.20
82411;BMP180;72054;55.772;49.096;2023-08-17T03:21:32;100707.00;;;36.30
82411;BMP180;72054;55.772;49.096;2023-08-17T03:22:33;100687.00;;;36.40
82411;BMP180;72054;55.772;49.096;2023-08-17T03:23:34;100630.00;;;36.50
82411;BMP180;72054;55.772;49.096;2023-08-17T03:24:34;100655.00;;;36.50
82411;BMP180;72054;55.772;49.096;2023-08-17T03:25:35;100713.00;;;37.10
82411;BMP180;72054;55.772;49.096;2023-08-17T03:26:35;100701.00;;;36.80
82411;BMP180;72054;55.772;49.096;2023-08-17T03:27:36;100710.00;;;37.30
82411;BMP180;72054;55.772;49.096;2023-08-17T03:28:36;100684.00;;;37.00
82411;BMP180;72054;55.772;49.096;2023-08-17T03:29:37;100676.00;;;37.00
82411;BMP180;72054;55.772;49.096;2023-08-17T03:30:37;100718.00;;;37.00
82411;BMP180;72054;55.772;49.096;2023-08-17T03:31:38;100713.00;;;37.10
82411;BMP180;72054;55.772;49.096;2023-08-17T03:32:38;100710.00;;;37.20
82411;BMP180;72054;55.772;49.096;2023-08-17T03:33:39;100661.00;;;37.30
82411;BMP180;72054;55.772;49.096;2023-08-17T03:34:40;100720.00;;;37.40
82411;BMP180;72054;55.772;49.096;2023-08-17T03:35:41;100731.00;;;38.10
82411;BMP180;72054;55.772;49.096;2023-08-17T03:36:41;100693.00;;;37.90
82411;BMP180;72054;55.772;49.096;2023-08-17T03:37:41;100731.00;;;38.40
82411;BMP180;72054;55.772;49.096;2023-08-17T03:38:42;100721.00;;;38.20
82411;BMP180;72054;55.772;49.096;2023-08-17T03:39:42;100708.00;;;38.30
82411;BMP180;72054;55.772;49.096;2023-08-17T03:40:43;100694.00;;;38.40
82411;BMP180;72054;55.772;49.096;2023-08-17T03:41:43;100701.00;;;38.50
82411;BMP180;72054;55.772;49.096;2023-08-17T03:42:44;100738.00;;;38.70
82411;BMP180;72054;55.772;49.096;2023-08-17T03:43:44;100755.00;;;38.90
82411;BMP180;72054;55.772;49.096;2023-08-17T03:44:45;100726.00;;;39.00
82411;BMP180;72054;55.772;49.096;2023-08-17T03:45:45;100713.00;;;39.20
82411;BMP180;72054;55.772;49.096;2023-08-17T03:46:46;100721.00;;;39.30
82411;BMP180;72054;55.772;49.096;2023-08-17T03:47:46;100748.00;;;40.00
82411;BMP180;72054;55.772;49.096;2023-08-17T03:48:47;100756.00;;;39.90
82411;BMP180;72054;55.772;49.096;2023-08-17T03:49:47;100762.00;;;40.40
82411;BMP180;72054;55.772;49.096;2023-08-17T03:50:52;100762.00;;;40.30
82411;BMP180;72054;55.772;49.096;2023-08-17T03:51:53;100755.00;;;40.40
82411;BMP180;72054;55.772;49.096;2023-08-17T03:52:53;100753.00;;;41.00
82411;BMP180;72054;55.772;49.096;2023-08-17T03:53:54;100714.00;;;40.80
82411;BMP180;72054;55.772;49.096;2023-08-17T03:54:54;100753.00;;;41.30
82411;BMP180;72054;55.772;49.096;2023-08-17T03:55:54;100727.00;;;41.10
82411;BMP180;72054;55.772;49.096;2023-08-17T03:56:55;100752.00;;;41.60
82411;BMP180;72054;55.772;49.096;2023-08-17T03:57:55;100756.00;;;41.30
82411;BMP180;72054;55.772;49.096;2023-08-17T03:58:56;100757.00;;;41.90
82411;BMP180;72054;55.772;49.096;2023-08-17T03:59:56;100684.00;;;41.70
82411;BMP180;72054;55.772;49.096;2023-08-17T04:00:57;100749.00;;;42.20
82411;BMP180;72054;55.772;49.096;2023-08-17T04:01:57;100761.00;;;42.10
82411;BMP180;72054;55.772;49.096;2023-08-17T04:02:58;100753.00;;;42.10
82411;BMP180;72054;55.772;49.096;2023-08-17T04:03:58;100776.00;;;42.70
82411;BMP180;72054;55.772;49.096;2023-08-17T04:04:58;100778.00;;;42.10
82411;BMP180;72054;55.772;49.096;2023-08-17T04:06:03;100775.00;;;42.30
82411;BMP180;72054;55.772;49.096;2023-08-17T04:07:04;100775.00;;;42.00
82411;BMP180;72054;55.772;49.096;2023-08-17T04:08:06;100777.00;;;41.20
82411;BMP180;72054;55.772;49.096;2023-08-17T04:09:07;100776.00;;;41.20
82411;BMP180;72054;55.772;49.096;2023-08-17T04:10:08;100749.00;;;40.60
82411;BMP180;72054;55.772;49.096;2023-08-17T04:11:08;100778.00;;;40.40
82411;BMP180;72054;55.772;49.096;2023-08-17T04:12:09;100773.00;;;40.80
82411;BMP180;72054;55.772;49.096;2023-08-17T04:13:09;100781.00;;;40.70
82411;BMP180;72054;55.772;49.096;2023-08-17T04:14:10;100772.00;;;40.80
82411;BMP180;72054;55.772;49.096;2023-08-17T04:15:10;100773.00;;;41.40
82411;BMP180;72054;55.772;49.096;2023-08-17T04:16:11;100780.00;;;41.30
82411;BMP180;72054;55.772;49.096;2023-08-17T04:17:11;100759.00;;;41.50
82411;BMP180;72054;55.772;49.096;2023-08-17T04:18:12;100773.00;;;41.80
82411;BMP180;72054;55.772;49.096;2023-08-17T04:19:12;100768.00;;;42.50
82411;BMP180;72054;55.772;49.096;2023-08-17T04:20:13;100739.00;;;42.50
82411;BMP180;72054;55.772;49.096;2023-08-17T04:21:13;100780.00;;;42.80
82411;BMP180;72054;55.772;49.096;2023-08-17T04:22:14;100776.00;;;43.40
82411;BMP180;72054;55.772;49.096;2023-08-17T04:23:14;100770.00;;;43.30
82411;BMP180;72054;55.772;49.096;2023-08-17T04:24:14;100782.00;;;43.90
82411;BMP180;72054;55.772;49.096;2023-08-17T04:25:15;100768.00;;;43.90
82411;BMP180;72054;55.772;49.096;2023-08-17T04:26:15;100777.00;;;44.50
82411;BMP180;72054;55.772;49.096;2023-08-17T04:27:16;100783.00;;;44.40
82411;BMP180;72054;55.772;49.096;2023-08-17T04:28:17;100782.00;;;45.00
82411;BMP180;72054;55.772;49.096;2023-08-17T04:29:17;100788.00;;;44.80
82411;BMP180;72054;55.772;49.096;2023-08-17T04:30:17;100779.00;;;45.30
82411;BMP180;72054;55.772;49.096;2023-08-17T04:31:18;100781.00;;;45.10
82411;BMP180;72054;55.772;49.096;2023-08-17T04:32:18;100787.00;;;45.70
82411;BMP180;72054;55.772;49.096;2023-08-17T04:33:19;100787.00;;;45.60
82411;BMP180;72054;55.772;49.096;2023-08-17T04:34:19;100787.00;;;46.10
82411;BMP180;72054;55.772;49.096;2023-08-17T04:35:20;100776.00;;;45.90
82411;BMP180;72054;55.772;49.096;2023-08-17T04:36:21;100788.00;;;46.40
82411;BMP180;72054;55.772;49.096;2023-08-17T04:37:21;100784.00;;;46.20
82411;BMP180;72054;55.772;49.096;2023-08-17T04:38:22;100792.00;;;46.70
82411;BMP180;72054;55.772;49.096;2023-08-17T04:39:23;100799.00;;;46.50
82411;BMP180;72054;55.772;49.096;2023-08-17T04:40:23;100792.00;;;47.00
82411;BMP180;72054;55.772;49.096;2023-08-17T04:41:23;100785.00;;;46.90
82411;BMP180;72054;55.772;49.096;2023-08-17T04:42:24;100796.00;;;47.50
82411;BMP180;72054;55.772;49.096;2023-08-17T04:43:25;100762.00;;;47.30
82411;BMP180;72054;55.772;49.096;2023-08-17T04:44:25;100797.00;;;47.80
82411;BMP180;72054;55.772;49.096;2023-08-17T04:45:26;100795.00;;;47.70
82411;BMP180;72054;55.772;49.096;2023-08-17T04:46:26;100784.00;;;48.20
82411;BMP180;72054;55.772;49.096;2023-08-17T04:47:27;100775.00;;;48.00
82411;BMP180;72054;55.772;49.096;2023-08-17T04:48:28;100788.00;;;48.60
82411;BMP180;72054;55.772;49.096;2023-08-17T04:49:28;100797.00;;;48.60
82411;BMP180;72054;55.772;49.096;2023-08-17T04:50:28;100786.00;;;49.10
82411;BMP180;72054;55.772;49.096;2023-08-17T04:51:30;100797.00;;;48.90
82411;BMP180;72054;55.772;49.096;2023-08-17T04:52:30;100795.00;;;49.00
82411;BMP180;72054;55.772;49.096;2023-08-17T04:53:31;100797.00;;;49.70
82411;BMP180;72054;55.772;49.096;2023-08-17T04:54:31;100792.00;;;49.60
82411;BMP180;72054;55.772;49.096;2023-08-17T04:55:32;100736.00;;;49.80
82411;BMP180;72054;55.772;49.096;2023-08-17T04:56:33;100733.00;;;49.90
82411;BMP180;72054;55.772;49.096;2023-08-17T04:57:33;100794.00;;;50.50
82411;BMP180;72054;55.772;49.096;2023-08-17T04:58:34;100777.00;;;50.30
82411;BMP180;72054;55.772;49.096;2023-08-17T04:59:34;100797.00;;;50.40
82411;BMP180;72054;55.772;49.096;2023-08-17T05:00:35;100793.00;;;50.90
82411;BMP180;72054;55.772;49.096;2023-08-17T05:01:35;100810.00;;;50.80
82411;BMP180;72054;55.772;49.096;2023-08-17T05:02:37;100806.00;;;50.80
82411;BMP180;72054;55.772;49.096;2023-08-17T05:03:37;100805.00;;;51.30
82411;BMP180;72054;55.772;49.096;2023-08-17T05:04:38;100808.00;;;50.90
82411;BMP180;72054;55.772;49.096;2023-08-17T05:05:40;100821.00;;;50.80
82411;BMP180;72054;55.772;49.096;2023-08-17T05:06:40;100802.00;;;51.20
82411;BMP180;72054;55.772;49.096;2023-08-17T05:07:40;100781.00;;;50.90
82411;BMP180;72054;55.772;49.096;2023-08-17T05:08:41;100813.00;;;50.90
82411;BMP180;72054;55.772;49.096;2023-08-17T05:09:41;100804.00;;;51.30
82411;BMP180;72054;55.772;49.096;2023-08-17T05:10:42;100780.00;;;51.10
82411;BMP180;72054;55.772;49.096;2023-08-17T05:11:42;100807.00;;;51.60
82411;BMP180;72054;55.772;49.096;2023-08-17T05:12:43;100794.00;;;51.50
82411;BMP180;72054;55.772;49.096;2023-08-17T05:13:43;100807.00;;;52.10
82411;BMP180;72054;55.772;49.096;2023-08-17T05:14:43;100718.00;;;52.00
82411;BMP180;72054;55.772;49.096;2023-08-17T05:15:44;100819.00;;;52.10
82411;BMP180;72054;55.772;49.096;2023-08-17T05:16:44;100759.00;;;52.30
82411;BMP180;72054;55.772;49.096;2023-08-17T05:17:45;100812.00;;;52.80
82411;BMP180;72054;55.772;49.096;2023-08-17T05:18:45;100819.00;;;52.60
82411;BMP180;72054;55.772;49.096;2023-08-17T05:19:46;100804.00;;;53.10
82411;BMP180;72054;55.772;49.096;2023-08-17T05:20:46;100809.00;;;52.90
82411;BMP180;72054;55.772;49.096;2023-08-17T05:21:46;100812.00;;;53.20
82411;BMP180;72054;55.772;49.096;2023-08-17T05:22:49;100781.00;;;52.90
82411;BMP180;72054;55.772;49.096;2023-08-17T05:23:49;100749.00;;;53.00
82411;BMP180;72054;55.772;49.096;2023-08-17T05:24:50;100816.00;;;53.00
82411;BMP180;72054;55.772;49.096;2023-08-17T05:25:50;100773.00;;;53.20
82411;BMP180;72054;55.772;49.096;2023-08-17T05:26:50;100809.00;;;53.70
82411;BMP180;72054;55.772;49.096;2023-08-17T05:27:51;100822.00;;;53.50
82411;BMP180;72054;55.772;49.096;2023-08-17T05:28:52;100821.00;;;53.70
82411;BMP180;72054;55.772;49.096;2023-08-17T05:29:52;100820.00;;;54.30
82411;BMP180;72054;55.772;49.096;2023-08-17T05:30:53;100807.00;;;54.20
82411;BMP180;72054;55.772;49.096;2023-08-17T05:31:53;100827.00;;;54.10
82411;BMP180;72054;55.772;49.096;2023-08-17T05:32:54;100819.00;;;54.40
82411;BMP180;72054;55.772;49.096;2023-08-17T05:33:54;100835.00;;;54.00
82411;BMP180;72054;55.772;49.096;2023-08-17T05:34:55;100813.00;;;53.80
82411;BMP180;72054;55.772;49.096;2023-08-17T05:35:55;100824.00;;;54.20
82411;BMP180;72054;55.772;49.096;2023-08-17T05:36:55;100822.00;;;53.90
82411;BMP180;72054;55.772;49.096;2023-08-17T05:37:56;100812.00;;;53.90
82411;BMP180;72054;55.772;49.096;2023-08-17T05:38:56;100818.00;;;54.40
82411;BMP180;72054;55.772;49.096;2023-08-17T05:39:57;100824.00;;;54.30
82411;BMP180;72054;55.772;49.096;2023-08-17T05:40:58;100811.00;;;54.40
82411;BMP180;72054;55.772;49.096;2023-08-17T05:41:58;100771.00;;;54.70
82411;BMP180;72054;55.772;49.096;2023-08-17T05:42:59;100826.00;;;54.90